Kullen, Sweden

2:04 PM CEST on July 23, 2016 (GMT +0200)
Arild | | Change Station

Elev 151 ft 56.26 °N, 12.58 °E | Updated 4 minutes ago

Clear
Clear
83.5 °F
Feels Like 81 °F
N
2.0
Wind Variable Wind from WNW
Gusts 5.0 mph

Today
High -- | Low -- °F
--% Chance of Precip.
Yesterday
High -- | Low -- °F
Precip. -- in
Pressure 30.12 in
Visibility -9999.0 miles
Clouds
Heat Index 81 °F
Dew Point 37 °F
Humidity 19%
Rainfall in
Snow Depth Not available.
4:56 AM 9:35 PM
Waning Gibbous, 85% visible
METAR ESTA 231150Z 22006KT 190V250 CAVOK 27/16 Q1020
Pressure 30.12 in
Visibility -9999.0 miles
Clouds
Heat Index 81 °F
Dew Point 37 °F
Humidity 19%
Rainfall in
Snow Depth Not available.
4:56 AM 9:35 PM
Waning Gibbous, 85% visible
METAR ESTA 231150Z 22006KT 190V250 CAVOK 27/16 Q1020

10-Day Weather Forecast

×

Almanac

Astronomy

Jul. 23, 2016 Rise Set
Actual Time
Civil Twilight
Nautical Twilight
Astronomical Twilight
Moon
Length of Visible Light
Length of Day
Tomorrow will be .
, % of the Moon is Illuminated

Today's Extremes

Country Highs Country Lows

Community

WunderPhotos

Upload Photos

1,926,811 photos uploaded!

WunderBlog® & News

Nearby

Air Quality

  Air Quality AQ Index Pollutant
Not available.

Snow Depth

Station Depth Elevation

Earthquake Activity

City Distance Mag. Time & Date
Minimum magnitude displayed is 2.5.

Coastal Water Temperatures

Place Temperature

Stations

Nearby Weather Stations

Station Location Temp. Windchill Dew Point Humidity Wind Precip. Elev Updated Type